sensor_id;sensor_type;location;lat;lon;timestamp;P1;durP1;ratioP1;P2;durP2;ratioP2
12112;SDS011;6120;52.250;8.478;2023-05-10T00:00:19;7.63;;;5.38;;
12112;SDS011;6120;52.250;8.478;2023-05-10T00:02:46;8.43;;;6.05;;
12112;SDS011;6120;52.250;8.478;2023-05-10T00:05:13;8.30;;;6.38;;
12112;SDS011;6120;52.250;8.478;2023-05-10T00:07:40;9.07;;;6.80;;
12112;SDS011;6120;52.250;8.478;2023-05-10T00:10:07;12.35;;;6.72;;
12112;SDS011;6120;52.250;8.478;2023-05-10T00:12:34;10.38;;;7.03;;
12112;SDS011;6120;52.250;8.478;2023-05-10T00:15:00;9.95;;;6.47;;
12112;SDS011;6120;52.250;8.478;2023-05-10T00:17:27;8.63;;;6.55;;
12112;SDS011;6120;52.250;8.478;2023-05-10T00:19:54;11.55;;;8.15;;
12112;SDS011;6120;52.250;8.478;2023-05-10T05:48:58;13.65;;;6.93;;
12112;SDS011;6120;52.250;8.478;2023-05-10T05:51:25;13.88;;;7.18;;
12112;SDS011;6120;52.250;8.478;2023-05-10T05:53:52;14.13;;;7.28;;
12112;SDS011;6120;52.250;8.478;2023-05-10T05:56:19;14.27;;;7.80;;
12112;SDS011;6120;52.250;8.478;2023-05-10T05:58:50;12.70;;;7.95;;
12112;SDS011;6120;52.250;8.478;2023-05-10T06:01:17;13.07;;;7.22;;
12112;SDS011;6120;52.250;8.478;2023-05-10T06:03:44;12.27;;;7.65;;
12112;SDS011;6120;52.250;8.478;2023-05-10T06:06:10;13.15;;;7.03;;
12112;SDS011;6120;52.250;8.478;2023-05-10T06:08:37;11.45;;;6.05;;
12112;SDS011;6120;52.250;8.478;2023-05-10T06:11:04;15.52;;;7.40;;
12112;SDS011;6120;52.250;8.478;2023-05-10T06:13:30;13.32;;;6.88;;
12112;SDS011;6120;52.250;8.478;2023-05-10T06:15:59;12.25;;;6.55;;
12112;SDS011;6120;52.250;8.478;2023-05-10T06:18:25;11.15;;;6.25;;
12112;SDS011;6120;52.250;8.478;2023-05-10T06:20:52;11.05;;;6.07;;
12112;SDS011;6120;52.250;8.478;2023-05-10T06:23:18;9.95;;;6.18;;
12112;SDS011;6120;52.250;8.478;2023-05-10T06:25:45;9.98;;;5.97;;
12112;SDS011;6120;52.250;8.478;2023-05-10T06:28:12;7.53;;;5.07;;
12112;SDS011;6120;52.250;8.478;2023-05-10T06:30:38;9.35;;;5.50;;
12112;SDS011;6120;52.250;8.478;2023-05-10T06:33:05;11.55;;;4.75;;
12112;SDS011;6120;52.250;8.478;2023-05-10T06:35:32;7.35;;;4.60;;
12112;SDS011;6120;52.250;8.478;2023-05-10T06:37:59;12.00;;;5.18;;
12112;SDS011;6120;52.250;8.478;2023-05-10T06:40:26;8.18;;;4.82;;
12112;SDS011;6120;52.250;8.478;2023-05-10T06:42:53;8.85;;;5.38;;
12112;SDS011;6120;52.250;8.478;2023-05-10T06:45:20;9.15;;;5.30;;
12112;SDS011;6120;52.250;8.478;2023-05-10T06:47:46;7.70;;;5.38;;
12112;SDS011;6120;52.250;8.478;2023-05-10T06:50:13;8.73;;;5.80;;
12112;SDS011;6120;52.250;8.478;2023-05-10T06:52:40;9.38;;;5.25;;
12112;SDS011;6120;52.250;8.478;2023-05-10T06:55:07;10.45;;;6.18;;
12112;SDS011;6120;52.250;8.478;2023-05-10T06:57:35;7.97;;;4.93;;
12112;SDS011;6120;52.250;8.478;2023-05-10T07:00:01;9.15;;;5.78;;
12112;SDS011;6120;52.250;8.478;2023-05-10T07:02:30;8.27;;;5.03;;
12112;SDS011;6120;52.250;8.478;2023-05-10T07:04:57;8.93;;;4.95;;
12112;SDS011;6120;52.250;8.478;2023-05-10T07:07:27;7.82;;;4.90;;
12112;SDS011;6120;52.250;8.478;2023-05-10T07:09:55;8.63;;;5.05;;
12112;SDS011;6120;52.250;8.478;2023-05-10T07:12:23;8.02;;;4.85;;
12112;SDS011;6120;52.250;8.478;2023-05-10T07:14:50;7.45;;;4.00;;
12112;SDS011;6120;52.250;8.478;2023-05-10T07:17:16;8.20;;;4.68;;
12112;SDS011;6120;52.250;8.478;2023-05-10T07:19:43;10.20;;;4.82;;
12112;SDS011;6120;52.250;8.478;2023-05-10T07:22:10;7.95;;;5.05;;
12112;SDS011;6120;52.250;8.478;2023-05-10T07:24:36;9.35;;;5.57;;
12112;SDS011;6120;52.250;8.478;2023-05-10T07:27:03;10.80;;;5.43;;
12112;SDS011;6120;52.250;8.478;2023-05-10T07:29:30;9.43;;;4.75;;
12112;SDS011;6120;52.250;8.478;2023-05-10T07:31:57;8.35;;;5.25;;
12112;SDS011;6120;52.250;8.478;2023-05-10T07:34:24;10.63;;;5.60;;
12112;SDS011;6120;52.250;8.478;2023-05-10T07:36:51;8.85;;;5.20;;
12112;SDS011;6120;52.250;8.478;2023-05-10T07:39:19;9.73;;;5.37;;
12112;SDS011;6120;52.250;8.478;2023-05-10T07:41:53;10.52;;;5.28;;
12112;SDS011;6120;52.250;8.478;2023-05-10T07:44:20;8.57;;;5.43;;
12112;SDS011;6120;52.250;8.478;2023-05-10T07:46:47;11.32;;;5.93;;
12112;SDS011;6120;52.250;8.478;2023-05-10T07:49:15;7.40;;;5.72;;
12112;SDS011;6120;52.250;8.478;2023-05-10T07:51:42;9.70;;;5.70;;
12112;SDS011;6120;52.250;8.478;2023-05-10T07:54:09;11.77;;;6.32;;
12112;SDS011;6120;52.250;8.478;2023-05-10T07:56:37;13.50;;;7.20;;
12112;SDS011;6120;52.250;8.478;2023-05-10T07:59:04;12.25;;;7.35;;
12112;SDS011;6120;52.250;8.478;2023-05-10T08:01:35;13.80;;;7.75;;
12112;SDS011;6120;52.250;8.478;2023-05-10T08:04:02;14.52;;;8.30;;
12112;SDS011;6120;52.250;8.478;2023-05-10T08:06:29;12.25;;;7.32;;
12112;SDS011;6120;52.250;8.478;2023-05-10T08:08:56;13.95;;;8.35;;
12112;SDS011;6120;52.250;8.478;2023-05-10T08:11:23;14.82;;;8.00;;
12112;SDS011;6120;52.250;8.478;2023-05-10T08:13:50;19.40;;;10.55;;
12112;SDS011;6120;52.250;8.478;2023-05-10T08:16:17;17.42;;;9.55;;
12112;SDS011;6120;52.250;8.478;2023-05-10T08:18:44;14.95;;;8.75;;
12112;SDS011;6120;52.250;8.478;2023-05-10T08:21:13;18.17;;;9.45;;
12112;SDS011;6120;52.250;8.478;2023-05-10T08:23:40;20.70;;;8.80;;
12112;SDS011;6120;52.250;8.478;2023-05-10T08:26:07;11.82;;;7.10;;
12112;SDS011;6120;52.250;8.478;2023-05-10T08:28:33;17.50;;;8.88;;
12112;SDS011;6120;52.250;8.478;2023-05-10T08:31:00;16.75;;;9.45;;
12112;SDS011;6120;52.250;8.478;2023-05-10T08:33:27;15.90;;;8.43;;
12112;SDS011;6120;52.250;8.478;2023-05-10T08:35:53;13.18;;;7.65;;
12112;SDS011;6120;52.250;8.478;2023-05-10T08:38:20;15.10;;;8.52;;
12112;SDS011;6120;52.250;8.478;2023-05-10T08:40:46;19.48;;;9.60;;
12112;SDS011;6120;52.250;8.478;2023-05-10T08:45:43;17.67;;;9.98;;
12112;SDS011;6120;52.250;8.478;2023-05-10T08:48:13;27.38;;;11.88;;
12112;SDS011;6120;52.250;8.478;2023-05-10T08:50:40;24.55;;;12.18;;
12112;SDS011;6120;52.250;8.478;2023-05-10T08:53:12;23.52;;;12.45;;
12112;SDS011;6120;52.250;8.478;2023-05-10T08:55:39;18.80;;;11.02;;
12112;SDS011;6120;52.250;8.478;2023-05-10T08:58:08;21.27;;;10.95;;
12112;SDS011;6120;52.250;8.478;2023-05-10T09:00:35;21.07;;;11.07;;
12112;SDS011;6120;52.250;8.478;2023-05-10T09:03:03;21.47;;;11.93;;
12112;SDS011;6120;52.250;8.478;2023-05-10T09:05:31;22.80;;;11.30;;
12112;SDS011;6120;52.250;8.478;2023-05-10T09:07:58;21.88;;;11.93;;
12112;SDS011;6120;52.250;8.478;2023-05-10T09:10:27;20.92;;;11.18;;
12112;SDS011;6120;52.250;8.478;2023-05-10T09:12:55;22.00;;;11.60;;
12112;SDS011;6120;52.250;8.478;2023-05-10T09:15:24;18.33;;;10.75;;
12112;SDS011;6120;52.250;8.478;2023-05-10T09:17:52;19.30;;;10.30;;
12112;SDS011;6120;52.250;8.478;2023-05-10T09:20:19;19.13;;;10.45;;
12112;SDS011;6120;52.250;8.478;2023-05-10T09:22:45;22.10;;;10.95;;
12112;SDS011;6120;52.250;8.478;2023-05-10T09:25:15;23.60;;;13.75;;
12112;SDS011;6120;52.250;8.478;2023-05-10T09:27:47;23.00;;;12.98;;
12112;SDS011;6120;52.250;8.478;2023-05-10T09:32:49;17.52;;;9.35;;
12112;SDS011;6120;52.250;8.478;2023-05-10T09:35:18;19.25;;;11.23;;
12112;SDS011;6120;52.250;8.478;2023-05-10T09:37:46;18.88;;;10.75;;
12112;SDS011;6120;52.250;8.478;2023-05-10T09:40:16;20.63;;;11.02;;
12112;SDS011;6120;52.250;8.478;2023-05-10T09:45:21;19.48;;;10.60;;
12112;SDS011;6120;52.250;8.478;2023-05-10T09:47:48;22.05;;;11.30;;
12112;SDS011;6120;52.250;8.478;2023-05-10T09:50:15;24.17;;;11.60;;
12112;SDS011;6120;52.250;8.478;2023-05-10T09:52:47;20.47;;;10.80;;
12112;SDS011;6120;52.250;8.478;2023-05-10T09:55:16;22.67;;;10.88;;
12112;SDS011;6120;52.250;8.478;2023-05-10T09:57:45;19.10;;;9.88;;
12112;SDS011;6120;52.250;8.478;2023-05-10T10:00:17;19.35;;;10.40;;
12112;SDS011;6120;52.250;8.478;2023-05-10T10:02:46;17.08;;;9.27;;
12112;SDS011;6120;52.250;8.478;2023-05-10T10:05:14;16.05;;;8.00;;
12112;SDS011;6120;52.250;8.478;2023-05-10T10:07:41;19.85;;;9.05;;
12112;SDS011;6120;52.250;8.478;2023-05-10T10:10:08;17.50;;;7.78;;
12112;SDS011;6120;52.250;8.478;2023-05-10T10:12:39;17.30;;;10.43;;
12112;SDS011;6120;52.250;8.478;2023-05-10T10:17:35;16.53;;;8.93;;
12112;SDS011;6120;52.250;8.478;2023-05-10T10:20:04;20.80;;;10.07;;
12112;SDS011;6120;52.250;8.478;2023-05-10T10:22:32;19.43;;;9.30;;
12112;SDS011;6120;52.250;8.478;2023-05-10T10:24:58;16.05;;;8.27;;
12112;SDS011;6120;52.250;8.478;2023-05-10T10:27:34;16.58;;;9.30;;
12112;SDS011;6120;52.250;8.478;2023-05-10T10:35:38;14.85;;;9.30;;
12112;SDS011;6120;52.250;8.478;2023-05-10T10:38:07;16.25;;;8.95;;
12112;SDS011;6120;52.250;8.478;2023-05-10T10:40:34;14.90;;;8.68;;
12112;SDS011;6120;52.250;8.478;2023-05-10T11:03:09;18.17;;;10.68;;
12112;SDS011;6120;52.250;8.478;2023-05-10T11:05:48;16.50;;;10.27;;
12112;SDS011;6120;52.250;8.478;2023-05-10T11:08:16;18.23;;;10.00;;
12112;SDS011;6120;52.250;8.478;2023-05-10T11:11:06;16.33;;;9.38;;
12112;SDS011;6120;52.250;8.478;2023-05-10T11:13:34;17.90;;;9.90;;
12112;SDS011;6120;52.250;8.478;2023-05-10T11:16:11;20.30;;;10.35;;
12112;SDS011;6120;52.250;8.478;2023-05-10T11:21:30;18.77;;;10.52;;
12112;SDS011;6120;52.250;8.478;2023-05-10T11:23:57;16.75;;;10.45;;
12112;SDS011;6120;52.250;8.478;2023-05-10T11:26:26;17.27;;;9.98;;
12112;SDS011;6120;52.250;8.478;2023-05-10T11:28:57;16.17;;;10.25;;
12112;SDS011;6120;52.250;8.478;2023-05-10T11:31:28;15.55;;;9.82;;
12112;SDS011;6120;52.250;8.478;2023-05-10T11:33:56;18.77;;;10.17;;
12112;SDS011;6120;52.250;8.478;2023-05-10T11:36:28;18.48;;;10.27;;
12112;SDS011;6120;52.250;8.478;2023-05-10T11:38:56;16.17;;;9.48;;
12112;SDS011;6120;52.250;8.478;2023-05-10T11:41:23;17.70;;;9.98;;
12112;SDS011;6120;52.250;8.478;2023-05-10T11:43:52;18.38;;;8.27;;
12112;SDS011;6120;52.250;8.478;2023-05-10T11:48:51;11.60;;;7.28;;
12112;SDS011;6120;52.250;8.478;2023-05-10T11:51:20;13.30;;;8.25;;
12112;SDS011;6120;52.250;8.478;2023-05-10T11:53:53;15.05;;;8.45;;
12112;SDS011;6120;52.250;8.478;2023-05-10T11:56:21;18.45;;;8.98;;
12112;SDS011;6120;52.250;8.478;2023-05-10T11:58:54;14.73;;;7.88;;
12112;SDS011;6120;52.250;8.478;2023-05-10T12:01:23;15.73;;;8.90;;
12112;SDS011;6120;52.250;8.478;2023-05-10T12:03:51;16.95;;;9.05;;
12112;SDS011;6120;52.250;8.478;2023-05-10T12:08:47;15.77;;;8.07;;
12112;SDS011;6120;52.250;8.478;2023-05-10T12:11:14;13.50;;;8.02;;
12112;SDS011;6120;52.250;8.478;2023-05-10T12:13:44;13.85;;;8.18;;
12112;SDS011;6120;52.250;8.478;2023-05-10T12:16:15;12.13;;;7.65;;
12112;SDS011;6120;52.250;8.478;2023-05-10T12:18:43;15.73;;;8.35;;
12112;SDS011;6120;52.250;8.478;2023-05-10T12:21:11;15.88;;;8.68;;
12112;SDS011;6120;52.250;8.478;2023-05-10T12:23:38;21.17;;;8.30;;
12112;SDS011;6120;52.250;8.478;2023-05-10T12:26:05;13.75;;;8.27;;
12112;SDS011;6120;52.250;8.478;2023-05-10T12:28:32;12.23;;;7.45;;
12112;SDS011;6120;52.250;8.478;2023-05-10T12:30:59;10.90;;;7.03;;
12112;SDS011;6120;52.250;8.478;2023-05-10T12:33:26;14.05;;;7.82;;
12112;SDS011;6120;52.250;8.478;2023-05-10T12:35:53;14.98;;;8.40;;
12112;SDS011;6120;52.250;8.478;2023-05-10T12:38:37;14.95;;;8.15;;
12112;SDS011;6120;52.250;8.478;2023-05-10T12:41:11;14.73;;;7.38;;
12112;SDS011;6120;52.250;8.478;2023-05-10T12:43:44;12.73;;;6.82;;
12112;SDS011;6120;52.250;8.478;2023-05-10T12:46:16;14.25;;;7.50;;
12112;SDS011;6120;52.250;8.478;2023-05-10T12:48:44;13.85;;;7.45;;
12112;SDS011;6120;52.250;8.478;2023-05-10T12:51:12;13.50;;;6.88;;
12112;SDS011;6120;52.250;8.478;2023-05-10T12:53:41;12.60;;;6.57;;
12112;SDS011;6120;52.250;8.478;2023-05-10T12:56:12;12.23;;;6.13;;
12112;SDS011;6120;52.250;8.478;2023-05-10T12:58:39;12.00;;;5.75;;
12112;SDS011;6120;52.250;8.478;2023-05-10T13:01:05;15.27;;;6.13;;
12112;SDS011;6120;52.250;8.478;2023-05-10T13:03:32;13.25;;;6.75;;
12112;SDS011;6120;52.250;8.478;2023-05-10T13:05:59;12.75;;;7.07;;
12112;SDS011;6120;52.250;8.478;2023-05-10T13:08:25;12.98;;;6.70;;
12112;SDS011;6120;52.250;8.478;2023-05-10T13:10:52;17.90;;;8.00;;
12112;SDS011;6120;52.250;8.478;2023-05-10T13:13:19;13.80;;;6.75;;
12112;SDS011;6120;52.250;8.478;2023-05-10T13:15:46;15.35;;;7.25;;
12112;SDS011;6120;52.250;8.478;2023-05-10T13:18:12;10.77;;;6.47;;
12112;SDS011;6120;52.250;8.478;2023-05-10T13:20:39;13.65;;;7.28;;
12112;SDS011;6120;52.250;8.478;2023-05-10T13:23:06;13.98;;;7.50;;
12112;SDS011;6120;52.250;8.478;2023-05-10T13:25:33;16.38;;;6.88;;
12112;SDS011;6120;52.250;8.478;2023-05-10T13:28:00;12.45;;;6.85;;
12112;SDS011;6120;52.250;8.478;2023-05-10T13:30:27;13.88;;;6.63;;
12112;SDS011;6120;52.250;8.478;2023-05-10T13:32:54;10.97;;;6.23;;
12112;SDS011;6120;52.250;8.478;2023-05-10T13:35:21;12.90;;;7.47;;
12112;SDS011;6120;52.250;8.478;2023-05-10T13:37:48;11.70;;;6.88;;
12112;SDS011;6120;52.250;8.478;2023-05-10T13:40:16;11.98;;;6.53;;
12112;SDS011;6120;52.250;8.478;2023-05-10T13:42:43;13.68;;;7.13;;
12112;SDS011;6120;52.250;8.478;2023-05-10T13:45:09;12.00;;;6.50;;
12112;SDS011;6120;52.250;8.478;2023-05-10T13:47:38;10.68;;;5.55;;
12112;SDS011;6120;52.250;8.478;2023-05-10T13:50:05;10.95;;;5.78;;
12112;SDS011;6120;52.250;8.478;2023-05-10T13:52:32;12.73;;;6.50;;
12112;SDS011;6120;52.250;8.478;2023-05-10T13:54:59;13.13;;;6.57;;
12112;SDS011;6120;52.250;8.478;2023-05-10T13:57:26;13.07;;;5.93;;
12112;SDS011;6120;52.250;8.478;2023-05-10T13:59:52;9.95;;;5.15;;
12112;SDS011;6120;52.250;8.478;2023-05-10T14:02:22;10.20;;;5.03;;
12112;SDS011;6120;52.250;8.478;2023-05-10T14:04:49;11.73;;;5.35;;
12112;SDS011;6120;52.250;8.478;2023-05-10T14:07:16;15.13;;;7.43;;
12112;SDS011;6120;52.250;8.478;2023-05-10T14:09:42;13.68;;;6.93;;
12112;SDS011;6120;52.250;8.478;2023-05-10T14:12:09;11.52;;;6.90;;
12112;SDS011;6120;52.250;8.478;2023-05-10T14:14:35;17.88;;;8.88;;
12112;SDS011;6120;52.250;8.478;2023-05-10T14:17:02;16.10;;;9.23;;
12112;SDS011;6120;52.250;8.478;2023-05-10T14:19:29;18.08;;;9.82;;
12112;SDS011;6120;52.250;8.478;2023-05-10T14:21:58;20.80;;;9.95;;
12112;SDS011;6120;52.250;8.478;2023-05-10T14:24:25;17.67;;;9.02;;
12112;SDS011;6120;52.250;8.478;2023-05-10T14:26:51;19.50;;;9.70;;
12112;SDS011;6120;52.250;8.478;2023-05-10T14:29:20;16.48;;;9.07;;
12112;SDS011;6120;52.250;8.478;2023-05-10T14:31:47;16.95;;;8.85;;
12112;SDS011;6120;52.250;8.478;2023-05-10T14:34:14;17.23;;;8.70;;
12112;SDS011;6120;52.250;8.478;2023-05-10T14:36:40;16.73;;;9.23;;
12112;SDS011;6120;52.250;8.478;2023-05-10T14:39:07;18.60;;;9.88;;
12112;SDS011;6120;52.250;8.478;2023-05-10T14:44:03;18.02;;;9.13;;
12112;SDS011;6120;52.250;8.478;2023-05-10T14:46:29;16.23;;;8.77;;
12112;SDS011;6120;52.250;8.478;2023-05-10T14:48:56;16.52;;;8.93;;
12112;SDS011;6120;52.250;8.478;2023-05-10T14:51:23;15.90;;;8.20;;
12112;SDS011;6120;52.250;8.478;2023-05-10T14:53:49;18.67;;;8.95;;
12112;SDS011;6120;52.250;8.478;2023-05-10T14:56:16;17.38;;;9.48;;
12112;SDS011;6120;52.250;8.478;2023-05-10T14:58:42;16.88;;;8.73;;
12112;SDS011;6120;52.250;8.478;2023-05-10T15:01:09;18.20;;;7.95;;
12112;SDS011;6120;52.250;8.478;2023-05-10T15:03:36;18.10;;;8.23;;
12112;SDS011;6120;52.250;8.478;2023-05-10T15:06:04;16.85;;;8.70;;
12112;SDS011;6120;52.250;8.478;2023-05-10T15:08:31;16.70;;;8.23;;
12112;SDS011;6120;52.250;8.478;2023-05-10T15:10:57;17.77;;;8.68;;
12112;SDS011;6120;52.250;8.478;2023-05-10T15:13:24;19.75;;;8.65;;
12112;SDS011;6120;52.250;8.478;2023-05-10T15:15:51;16.70;;;9.00;;
12112;SDS011;6120;52.250;8.478;2023-05-10T15:18:17;16.85;;;8.98;;
12112;SDS011;6120;52.250;8.478;2023-05-10T15:20:49;15.43;;;7.50;;
12112;SDS011;6120;52.250;8.478;2023-05-10T15:23:15;16.17;;;8.00;;
12112;SDS011;6120;52.250;8.478;2023-05-10T15:25:42;15.93;;;8.15;;
12112;SDS011;6120;52.250;8.478;2023-05-10T15:28:08;12.57;;;6.75;;
12112;SDS011;6120;52.250;8.478;2023-05-10T15:30:35;18.50;;;9.35;;
12112;SDS011;6120;52.250;8.478;2023-05-10T15:33:02;17.00;;;8.80;;
12112;SDS011;6120;52.250;8.478;2023-05-10T15:35:28;13.13;;;7.78;;
12112;SDS011;6120;52.250;8.478;2023-05-10T15:37:55;14.07;;;7.63;;
12112;SDS011;6120;52.250;8.478;2023-05-10T15:40:21;15.55;;;7.90;;
12112;SDS011;6120;52.250;8.478;2023-05-10T15:42:49;12.40;;;7.40;;
12112;SDS011;6120;52.250;8.478;2023-05-10T15:45:15;13.25;;;7.97;;
12112;SDS011;6120;52.250;8.478;2023-05-10T15:47:42;10.20;;;5.82;;
12112;SDS011;6120;52.250;8.478;2023-05-10T15:50:10;13.38;;;7.32;;
12112;SDS011;6120;52.250;8.478;2023-05-10T15:52:37;11.95;;;6.68;;
12112;SDS011;6120;52.250;8.478;2023-05-10T15:55:04;13.90;;;7.53;;
12112;SDS011;6120;52.250;8.478;2023-05-10T15:57:38;12.77;;;6.32;;
12112;SDS011;6120;52.250;8.478;2023-05-10T16:00:07;14.90;;;7.97;;
12112;SDS011;6120;52.250;8.478;2023-05-10T16:02:34;17.00;;;8.60;;
12112;SDS011;6120;52.250;8.478;2023-05-10T16:05:02;14.77;;;8.13;;
12112;SDS011;6120;52.250;8.478;2023-05-10T16:07:29;10.88;;;6.43;;
12112;SDS011;6120;52.250;8.478;2023-05-10T16:09:55;11.57;;;6.68;;
12112;SDS011;6120;52.250;8.478;2023-05-10T16:12:22;9.60;;;5.45;;
12112;SDS011;6120;52.250;8.478;2023-05-10T16:14:49;11.20;;;5.47;;
12112;SDS011;6120;52.250;8.478;2023-05-10T16:17:15;15.43;;;6.47;;
12112;SDS011;6120;52.250;8.478;2023-05-10T16:19:42;14.52;;;7.93;;
12112;SDS011;6120;52.250;8.478;2023-05-10T16:22:09;11.95;;;6.93;;
12112;SDS011;6120;52.250;8.478;2023-05-10T16:24:35;17.92;;;7.80;;
12112;SDS011;6120;52.250;8.478;2023-05-10T16:27:02;20.27;;;7.53;;
12112;SDS011;6120;52.250;8.478;2023-05-10T16:29:28;16.13;;;7.20;;
12112;SDS011;6120;52.250;8.478;2023-05-10T16:31:55;20.25;;;8.18;;
12112;SDS011;6120;52.250;8.478;2023-05-10T16:34:21;16.63;;;7.65;;
12112;SDS011;6120;52.250;8.478;2023-05-10T16:36:49;12.38;;;6.50;;
12112;SDS011;6120;52.250;8.478;2023-05-10T16:39:16;14.38;;;7.07;;
12112;SDS011;6120;52.250;8.478;2023-05-10T16:41:43;13.95;;;7.28;;
12112;SDS011;6120;52.250;8.478;2023-05-10T16:44:10;14.32;;;7.00;;
12112;SDS011;6120;52.250;8.478;2023-05-10T16:46:36;12.55;;;6.72;;
12112;SDS011;6120;52.250;8.478;2023-05-10T16:49:03;15.98;;;7.93;;
12112;SDS011;6120;52.250;8.478;2023-05-10T16:51:30;15.40;;;7.68;;
12112;SDS011;6120;52.250;8.478;2023-05-10T16:53:56;15.48;;;7.82;;
12112;SDS011;6120;52.250;8.478;2023-05-10T16:56:23;16.70;;;8.38;;
12112;SDS011;6120;52.250;8.478;2023-05-10T16:58:50;16.42;;;8.30;;
12112;SDS011;6120;52.250;8.478;2023-05-10T17:01:16;17.02;;;8.30;;
12112;SDS011;6120;52.250;8.478;2023-05-10T17:03:43;16.23;;;7.80;;
12112;SDS011;6120;52.250;8.478;2023-05-10T17:06:10;15.23;;;7.43;;
12112;SDS011;6120;52.250;8.478;2023-05-10T17:08:37;12.50;;;6.75;;
12112;SDS011;6120;52.250;8.478;2023-05-10T17:11:03;9.70;;;5.93;;
12112;SDS011;6120;52.250;8.478;2023-05-10T17:13:30;10.32;;;5.53;;
12112;SDS011;6120;52.250;8.478;2023-05-10T17:15:57;10.65;;;6.20;;
12112;SDS011;6120;52.250;8.478;2023-05-10T17:18:24;9.88;;;5.88;;
12112;SDS011;6120;52.250;8.478;2023-05-10T17:20:51;14.67;;;7.33;;
12112;SDS011;6120;52.250;8.478;2023-05-10T17:23:18;12.30;;;6.97;;
12112;SDS011;6120;52.250;8.478;2023-05-10T17:25:45;12.30;;;7.28;;
12112;SDS011;6120;52.250;8.478;2023-05-10T17:28:12;17.80;;;7.60;;
12112;SDS011;6120;52.250;8.478;2023-05-10T17:30:39;13.90;;;7.60;;
12112;SDS011;6120;52.250;8.478;2023-05-10T17:33:05;13.20;;;7.15;;
12112;SDS011;6120;52.250;8.478;2023-05-10T17:35:32;11.98;;;6.82;;
12112;SDS011;6120;52.250;8.478;2023-05-10T17:37:59;14.20;;;7.38;;
12112;SDS011;6120;52.250;8.478;2023-05-10T17:40:26;13.18;;;7.72;;
12112;SDS011;6120;52.250;8.478;2023-05-10T17:42:52;11.35;;;7.10;;
12112;SDS011;6120;52.250;8.478;2023-05-10T17:45:19;11.43;;;6.85;;
12112;SDS011;6120;52.250;8.478;2023-05-10T17:47:46;11.82;;;6.65;;
12112;SDS011;6120;52.250;8.478;2023-05-10T17:50:12;12.02;;;6.40;;
12112;SDS011;6120;52.250;8.478;2023-05-10T17:52:39;11.15;;;6.32;;
12112;SDS011;6120;52.250;8.478;2023-05-10T17:55:06;11.55;;;6.80;;
12112;SDS011;6120;52.250;8.478;2023-05-10T17:57:32;9.90;;;5.78;;
12112;SDS011;6120;52.250;8.478;2023-05-10T17:59:59;10.98;;;5.80;;
12112;SDS011;6120;52.250;8.478;2023-05-10T18:02:29;10.35;;;5.72;;
12112;SDS011;6120;52.250;8.478;2023-05-10T18:04:55;7.38;;;5.10;;
12112;SDS011;6120;52.250;8.478;2023-05-10T18:07:25;7.88;;;4.68;;
12112;SDS011;6120;52.250;8.478;2023-05-10T18:09:52;7.85;;;4.63;;
12112;SDS011;6120;52.250;8.478;2023-05-10T18:12:18;9.32;;;5.50;;
12112;SDS011;6120;52.250;8.478;2023-05-10T18:14:45;8.70;;;5.32;;
12112;SDS011;6120;52.250;8.478;2023-05-10T18:17:12;7.85;;;4.78;;
12112;SDS011;6120;52.250;8.478;2023-05-10T18:19:38;11.05;;;6.00;;
12112;SDS011;6120;52.250;8.478;2023-05-10T18:22:05;13.93;;;7.32;;
12112;SDS011;6120;52.250;8.478;2023-05-10T18:24:36;11.75;;;6.30;;
12112;SDS011;6120;52.250;8.478;2023-05-10T18:27:05;13.73;;;8.32;;
12112;SDS011;6120;52.250;8.478;2023-05-10T18:29:33;12.38;;;7.68;;
12112;SDS011;6120;52.250;8.478;2023-05-10T18:32:00;10.98;;;6.93;;
12112;SDS011;6120;52.250;8.478;2023-05-10T18:34:27;11.73;;;7.43;;
12112;SDS011;6120;52.250;8.478;2023-05-10T18:36:54;12.07;;;6.90;;
12112;SDS011;6120;52.250;8.478;2023-05-10T18:39:21;13.32;;;8.38;;
12112;SDS011;6120;52.250;8.478;2023-05-10T18:41:48;12.05;;;7.20;;
12112;SDS011;6120;52.250;8.478;2023-05-10T18:44:15;9.27;;;5.72;;
12112;SDS011;6120;52.250;8.478;2023-05-10T18:46:42;10.68;;;6.10;;
12112;SDS011;6120;52.250;8.478;2023-05-10T18:49:08;10.02;;;6.10;;
12112;SDS011;6120;52.250;8.478;2023-05-10T18:51:35;10.80;;;6.72;;
12112;SDS011;6120;52.250;8.478;2023-05-10T18:54:02;10.55;;;6.47;;
12112;SDS011;6120;52.250;8.478;2023-05-10T18:56:28;10.65;;;6.20;;
12112;SDS011;6120;52.250;8.478;2023-05-10T18:58:55;12.45;;;6.53;;
12112;SDS011;6120;52.250;8.478;2023-05-10T19:01:22;9.05;;;5.60;;
12112;SDS011;6120;52.250;8.478;2023-05-10T19:03:48;12.63;;;6.18;;
12112;SDS011;6120;52.250;8.478;2023-05-10T19:06:15;11.25;;;5.32;;
12112;SDS011;6120;52.250;8.478;2023-05-10T19:08:42;11.38;;;6.00;;
12112;SDS011;6120;52.250;8.478;2023-05-10T19:11:08;9.93;;;5.88;;
12112;SDS011;6120;52.250;8.478;2023-05-10T19:13:35;10.32;;;5.63;;
12112;SDS011;6120;52.250;8.478;2023-05-10T19:16:03;8.55;;;5.40;;
12112;SDS011;6120;52.250;8.478;2023-05-10T19:18:40;9.55;;;5.13;;
12112;SDS011;6120;52.250;8.478;2023-05-10T19:21:08;9.15;;;5.35;;
12112;SDS011;6120;52.250;8.478;2023-05-10T19:23:36;10.60;;;5.80;;
12112;SDS011;6120;52.250;8.478;2023-05-10T19:26:05;8.15;;;5.20;;
12112;SDS011;6120;52.250;8.478;2023-05-10T19:28:31;18.67;;;8.00;;
12112;SDS011;6120;52.250;8.478;2023-05-10T19:30:58;12.07;;;6.68;;
12112;SDS011;6120;52.250;8.478;2023-05-10T19:33:25;11.27;;;6.57;;
12112;SDS011;6120;52.250;8.478;2023-05-10T19:35:51;11.40;;;6.50;;
12112;SDS011;6120;52.250;8.478;2023-05-10T19:38:19;9.90;;;5.22;;
12112;SDS011;6120;52.250;8.478;2023-05-10T19:43:15;12.57;;;6.70;;
12112;SDS011;6120;52.250;8.478;2023-05-10T19:45:42;10.98;;;5.85;;
12112;SDS011;6120;52.250;8.478;2023-05-10T19:48:09;13.25;;;6.22;;
12112;SDS011;6120;52.250;8.478;2023-05-10T19:50:36;14.73;;;6.45;;
12112;SDS011;6120;52.250;8.478;2023-05-10T19:53:03;11.52;;;6.72;;
12112;SDS011;6120;52.250;8.478;2023-05-10T19:55:30;10.38;;;6.00;;
12112;SDS011;6120;52.250;8.478;2023-05-10T19:57:58;10.48;;;6.22;;
12112;SDS011;6120;52.250;8.478;2023-05-10T20:00:27;9.40;;;5.97;;
12112;SDS011;6120;52.250;8.478;2023-05-10T20:02:54;9.52;;;6.22;;
12112;SDS011;6120;52.250;8.478;2023-05-10T20:05:21;11.90;;;6.28;;
12112;SDS011;6120;52.250;8.478;2023-05-10T20:07:48;10.20;;;6.03;;
12112;SDS011;6120;52.250;8.478;2023-05-10T20:10:15;10.70;;;6.28;;
12112;SDS011;6120;52.250;8.478;2023-05-10T20:12:45;8.38;;;5.63;;
12112;SDS011;6120;52.250;8.478;2023-05-10T20:15:20;11.63;;;6.22;;
12112;SDS011;6120;52.250;8.478;2023-05-10T20:20:16;8.50;;;5.47;;
12112;SDS011;6120;52.250;8.478;2023-05-10T20:22:43;8.75;;;5.40;;
12112;SDS011;6120;52.250;8.478;2023-05-10T20:25:10;9.23;;;5.85;;
12112;SDS011;6120;52.250;8.478;2023-05-10T20:27:37;10.30;;;5.50;;
12112;SDS011;6120;52.250;8.478;2023-05-10T20:30:04;8.52;;;5.57;;
12112;SDS011;6120;52.250;8.478;2023-05-10T20:32:31;7.10;;;4.47;;
12112;SDS011;6120;52.250;8.478;2023-05-10T20:34:58;7.10;;;5.10;;
12112;SDS011;6120;52.250;8.478;2023-05-10T20:37:24;7.32;;;4.72;;
12112;SDS011;6120;52.250;8.478;2023-05-10T20:39:53;7.45;;;4.82;;
12112;SDS011;6120;52.250;8.478;2023-05-10T20:42:20;6.50;;;4.28;;
12112;SDS011;6120;52.250;8.478;2023-05-10T20:44:47;6.50;;;4.47;;
12112;SDS011;6120;52.250;8.478;2023-05-10T20:47:14;6.57;;;4.30;;
12112;SDS011;6120;52.250;8.478;2023-05-10T20:49:41;7.60;;;4.47;;
12112;SDS011;6120;52.250;8.478;2023-05-10T20:52:08;8.25;;;4.25;;
12112;SDS011;6120;52.250;8.478;2023-05-10T20:54:35;7.50;;;4.18;;
12112;SDS011;6120;52.250;8.478;2023-05-10T20:57:01;5.82;;;4.13;;
12112;SDS011;6120;52.250;8.478;2023-05-10T20:59:28;7.50;;;4.35;;
12112;SDS011;6120;52.250;8.478;2023-05-10T21:01:55;6.55;;;3.88;;
12112;SDS011;6120;52.250;8.478;2023-05-10T21:04:22;7.85;;;4.55;;
12112;SDS011;6120;52.250;8.478;2023-05-10T21:06:50;7.60;;;4.55;;